Donnelly, Idaho
Current Conditions -  °F | °C
As of 8:51 PM on Monday 20 Oct 2014 (Local Time) from KMYL Reporting Station
Scattered Clouds Scattered Clouds  
Wind Chill: 53°   Ceiling: Unl
Heat Index: 53°   Visibility: 10mi
Dew Point: 30°   Wind: 3mph
Humidity: 41%   Direction: 50°NE
Pressure: 29.8"   Gusts: NA
Location:  44.73°N, 116.08°W
Report Text: KMYL 210251Z AUTO 05003KT 10SM SCT100 12/M01 A2980 RMK AO2 SLP086 T01171011 57010
Loading
Personal Weather Stations






























Interactive Weather Map
Tropical Storm Tracking
New forecast layout! Learn more

10-Day Weather Forecast

Advertisements
Track Severe Weather on mobile